Wingate, Maryland
Current Conditions -  °F | °C
As of 2:52 PM on Monday 24 Nov 2014 (Local Time) from KNHK Reporting Station
Few Clouds Few Clouds  
Wind Chill: 72°   Ceiling: Unl
Heat Index: 72°   Visibility: 10mi
Dew Point: 54°   Wind: 14mph
Humidity: 53%   Direction: 190°S
Pressure: 29.66"   Gusts: 24mph
Location:  38.28°N, 76.08°W
Report Text: KNHK 241952Z 19012G21KT 10SM FEW030 FEW200 22/12 A2966 RMK AO2 SLP045 T02220122
Loading
Personal Weather Stations






























Interactive Weather Map New forecast layout! Learn more

10-Day Weather Forecast

Advertisements
Track Severe Weather on mobile